Back to Squawk list
  • 32

Phoenix Airport Damaged By Severe Thunderstorms

eklendi
 
Severe thunderstorms have caused significant damage to Phoenix's international airport. The storms have also grounded all flights, according to the Phoenix Sky Harbor airport's Twitter account. Parts of the airport are reportedly flooding, and a portion of the airport's roof appears to have been ripped off in the storm. (www.businessinsider.com) Daha Fazlası...

Sort type: [Top] [Newest]


Purdue13
Purdue13 7
Well, that'll do it.

KPHX 272139Z 29015G52KT 1/2SM R07L/1400VP6000FT +TSRA FG FEW007 BKN015 OVC070CB 21/20 A2972 RMK AO2 PK WND 26058/2128 WSHFT 2115 RAB23 TSB17 FRQ LTGIC ALQDS TS ALQDS MOV NE P0033 T02060200 $

KPHX 272131Z 26041G58KT 1/4SM R07L/0800V6000FT +TSRA FG BKN013 OVC070CB 21/21 A2970 RMK AO2 PK WND 26058/2128 WSHFT 2115 RAB23 TSB17 FRQ LTGIC ALQDS TS ALQDS MOV NE P0008 T02110206 $

KPHX 272128Z 26045G58KT 1/4SM R07L/0800VP6000FT +TSRA FG FEW008 BKN018 OVC070CB 22/21 A2966 RMK AO2 PK WND 26058/2128 RAB23 TSB17 VIS E-W 1/2 FRQ LTGIC ALQDS TS ALQDS MOV NE P0000 T02220206 $
zennermd
zennermd 3
I don't know what your talking about, looks like a great day for flying. ;-)
onceastudentpilot
tim mitchell 2
I wonder what a storm like this would do to Denver's roof
carlsonj
James Carlson 1
That's about what I'd need in order to do a zero groundspeed helicopter-like landing. That and someone on the ground with a video camera. ;-}
Pileits
Pileits 3
That's what Monsoon rains do, wreck things!
vkgarry
Garry Parker 2
Sunday, June 24, 1990. The mercury reaches 126F (the "official" recorded temperature was 113F, and 118F on 6/25...but it was hotter), and Sky Harbor Airport (PHX) is closed when the tarmac starts to melt, and air density drops so low that aerodynamic lift can't be guaranteed to achieve take-off velocity, or allow enough runway space to abort flights safely if necessary.

I was visiting PHX that day, specifically Mesa, east of Sky Harbor, for a drum and bugle corps competition. All of the groups competing gave their members a "free day", no rehearsal, because of the heat.
Beemac
Beemac 1
Terminal 2 is the oldest terminal and by the looks of it, not well maintained.

Giriş

Hesabınız yok mu? Kişiselleştirilmiş özellikler, uçuş uyarıları ve daha fazlası için şimdi (ücretsiz) üye olun!
Bu web site tanımlama bilgileri kullanmaktadır. Bu web siteyi kullanarak ve bu sitede gezinerek, bunu kabul etmiş olursunuz.
Kapat
FlightAware uçuş takibinin reklamlarla desteklendiğini biliyor muydunuz?
FlightAware.com'dan gelen reklamlara izin vererek FlightAware'in ücretsiz kalmasını sağlamamıza yardım edebilirsiniz. harika bir deneyim sunmak adına reklamlarımızı anlamlı ve öne çıkmayacak şekilde tutmak için yoğun şekilde çalışıyoruz. FlightAware'deki whitelist adsreklamları güvenilir olarak görmek hızlı ve kolaydır, veya lütfen premium hesaplarımıza geçmeyi düşünün.
Kapat